sensor_id;sensor_type;location;lat;lon;timestamp;P1;durP1;ratioP1;P2;durP2;ratioP2
23250;SDS011;11794;49.730;10.088;2023-07-28T00:01:12;7.80;;;2.63;;
23250;SDS011;11794;49.730;10.088;2023-07-28T00:03:37;7.57;;;2.90;;
23250;SDS011;11794;49.730;10.088;2023-07-28T00:06:03;7.10;;;2.65;;
23250;SDS011;11794;49.730;10.088;2023-07-28T00:08:28;7.97;;;2.40;;
23250;SDS011;11794;49.730;10.088;2023-07-28T00:10:54;6.27;;;2.20;;
23250;SDS011;11794;49.730;10.088;2023-07-28T00:13:19;7.32;;;2.63;;
23250;SDS011;11794;49.730;10.088;2023-07-28T00:15:45;6.50;;;2.40;;
23250;SDS011;11794;49.730;10.088;2023-07-28T00:18:10;7.67;;;2.13;;
23250;SDS011;11794;49.730;10.088;2023-07-28T00:20:36;6.68;;;2.40;;
23250;SDS011;11794;49.730;10.088;2023-07-28T00:23:01;6.57;;;2.10;;
23250;SDS011;11794;49.730;10.088;2023-07-28T00:25:27;7.30;;;2.63;;
23250;SDS011;11794;49.730;10.088;2023-07-28T00:27:52;7.05;;;2.38;;
23250;SDS011;11794;49.730;10.088;2023-07-28T00:30:18;9.13;;;2.30;;
23250;SDS011;11794;49.730;10.088;2023-07-28T00:32:43;7.03;;;2.30;;
23250;SDS011;11794;49.730;10.088;2023-07-28T00:35:09;6.55;;;2.10;;
23250;SDS011;11794;49.730;10.088;2023-07-28T00:37:34;6.43;;;2.00;;
23250;SDS011;11794;49.730;10.088;2023-07-28T00:40:00;5.90;;;1.80;;
23250;SDS011;11794;49.730;10.088;2023-07-28T00:42:25;6.57;;;2.20;;
23250;SDS011;11794;49.730;10.088;2023-07-28T00:44:51;5.90;;;1.83;;
23250;SDS011;11794;49.730;10.088;2023-07-28T00:47:16;6.30;;;2.30;;
23250;SDS011;11794;49.730;10.088;2023-07-28T00:49:42;11.27;;;2.55;;
23250;SDS011;11794;49.730;10.088;2023-07-28T00:52:08;7.35;;;2.45;;
23250;SDS011;11794;49.730;10.088;2023-07-28T00:54:33;5.90;;;2.00;;
23250;SDS011;11794;49.730;10.088;2023-07-28T00:56:59;5.30;;;1.75;;
23250;SDS011;11794;49.730;10.088;2023-07-28T00:59:26;7.15;;;2.20;;
23250;SDS011;11794;49.730;10.088;2023-07-28T01:01:52;7.43;;;2.35;;
23250;SDS011;11794;49.730;10.088;2023-07-28T01:04:18;6.43;;;2.27;;
23250;SDS011;11794;49.730;10.088;2023-07-28T01:09:23;8.70;;;2.65;;
23250;SDS011;11794;49.730;10.088;2023-07-28T01:11:58;6.30;;;2.40;;
23250;SDS011;11794;49.730;10.088;2023-07-28T01:14:25;10.85;;;2.42;;
23250;SDS011;11794;49.730;10.088;2023-07-28T01:16:51;8.57;;;2.27;;
23250;SDS011;11794;49.730;10.088;2023-07-28T01:19:17;7.93;;;2.40;;
23250;SDS011;11794;49.730;10.088;2023-07-28T01:21:45;6.38;;;2.50;;
23250;SDS011;11794;49.730;10.088;2023-07-28T01:27:14;6.33;;;2.07;;
23250;SDS011;11794;49.730;10.088;2023-07-28T01:29:40;6.37;;;2.10;;
23250;SDS011;11794;49.730;10.088;2023-07-28T01:32:06;6.68;;;2.20;;
23250;SDS011;11794;49.730;10.088;2023-07-28T01:34:32;6.22;;;2.28;;
23250;SDS011;11794;49.730;10.088;2023-07-28T01:36:57;9.13;;;2.47;;
23250;SDS011;11794;49.730;10.088;2023-07-28T01:39:23;7.77;;;2.40;;
23250;SDS011;11794;49.730;10.088;2023-07-28T01:41:48;6.95;;;2.47;;
23250;SDS011;11794;49.730;10.088;2023-07-28T01:44:14;6.13;;;2.27;;
23250;SDS011;11794;49.730;10.088;2023-07-28T01:46:40;6.80;;;2.25;;
23250;SDS011;11794;49.730;10.088;2023-07-28T01:49:05;6.30;;;2.10;;
23250;SDS011;11794;49.730;10.088;2023-07-28T01:51:31;7.63;;;2.40;;
23250;SDS011;11794;49.730;10.088;2023-07-28T01:53:56;6.13;;;2.13;;
23250;SDS011;11794;49.730;10.088;2023-07-28T01:56:22;6.97;;;1.90;;
23250;SDS011;11794;49.730;10.088;2023-07-28T01:58:47;6.13;;;2.17;;
23250;SDS011;11794;49.730;10.088;2023-07-28T02:01:13;7.17;;;2.10;;
23250;SDS011;11794;49.730;10.088;2023-07-28T02:03:38;6.30;;;1.97;;
23250;SDS011;11794;49.730;10.088;2023-07-28T02:06:04;6.55;;;1.77;;
23250;SDS011;11794;49.730;10.088;2023-07-28T02:08:29;6.37;;;2.37;;
23250;SDS011;11794;49.730;10.088;2023-07-28T02:10:55;6.93;;;2.10;;
23250;SDS011;11794;49.730;10.088;2023-07-28T02:13:20;7.05;;;2.00;;
23250;SDS011;11794;49.730;10.088;2023-07-28T02:15:46;6.43;;;1.90;;
23250;SDS011;11794;49.730;10.088;2023-07-28T02:18:11;6.00;;;1.70;;
23250;SDS011;11794;49.730;10.088;2023-07-28T02:20:37;6.72;;;1.80;;
23250;SDS011;11794;49.730;10.088;2023-07-28T02:23:04;5.65;;;2.03;;
23250;SDS011;11794;49.730;10.088;2023-07-28T02:25:29;5.93;;;1.63;;
23250;SDS011;11794;49.730;10.088;2023-07-28T02:27:55;5.95;;;1.88;;
23250;SDS011;11794;49.730;10.088;2023-07-28T02:30:20;5.33;;;1.60;;
23250;SDS011;11794;49.730;10.088;2023-07-28T02:32:46;6.20;;;1.87;;
23250;SDS011;11794;49.730;10.088;2023-07-28T02:35:11;5.57;;;2.00;;
23250;SDS011;11794;49.730;10.088;2023-07-28T02:37:37;6.47;;;1.90;;
23250;SDS011;11794;49.730;10.088;2023-07-28T02:40:03;5.93;;;1.60;;
23250;SDS011;11794;49.730;10.088;2023-07-28T02:42:28;6.13;;;1.80;;
23250;SDS011;11794;49.730;10.088;2023-07-28T02:44:55;6.20;;;1.30;;
23250;SDS011;11794;49.730;10.088;2023-07-28T02:47:20;5.87;;;1.80;;
23250;SDS011;11794;49.730;10.088;2023-07-28T02:49:46;4.97;;;1.63;;
23250;SDS011;11794;49.730;10.088;2023-07-28T02:52:12;6.47;;;1.50;;
23250;SDS011;11794;49.730;10.088;2023-07-28T02:54:37;7.03;;;1.83;;
23250;SDS011;11794;49.730;10.088;2023-07-28T02:57:03;6.50;;;1.87;;
23250;SDS011;11794;49.730;10.088;2023-07-28T02:59:28;6.13;;;1.80;;
23250;SDS011;11794;49.730;10.088;2023-07-28T03:01:54;5.30;;;1.80;;
23250;SDS011;11794;49.730;10.088;2023-07-28T03:04:21;5.63;;;1.67;;
23250;SDS011;11794;49.730;10.088;2023-07-28T03:06:46;5.17;;;1.70;;
23250;SDS011;11794;49.730;10.088;2023-07-28T03:09:12;4.85;;;1.60;;
23250;SDS011;11794;49.730;10.088;2023-07-28T03:11:38;5.82;;;1.65;;
23250;SDS011;11794;49.730;10.088;2023-07-28T03:14:04;8.03;;;1.53;;
23250;SDS011;11794;49.730;10.088;2023-07-28T03:16:29;5.57;;;1.50;;
23250;SDS011;11794;49.730;10.088;2023-07-28T03:18:55;4.50;;;1.15;;
23250;SDS011;11794;49.730;10.088;2023-07-28T03:21:20;4.10;;;1.10;;
23250;SDS011;11794;49.730;10.088;2023-07-28T03:23:46;4.83;;;1.43;;
23250;SDS011;11794;49.730;10.088;2023-07-28T03:26:11;4.35;;;1.25;;
23250;SDS011;11794;49.730;10.088;2023-07-28T03:28:37;4.90;;;1.23;;
23250;SDS011;11794;49.730;10.088;2023-07-28T03:31:02;4.28;;;1.15;;
23250;SDS011;11794;49.730;10.088;2023-07-28T03:33:28;5.87;;;1.10;;
23250;SDS011;11794;49.730;10.088;2023-07-28T03:35:53;6.30;;;1.30;;
23250;SDS011;11794;49.730;10.088;2023-07-28T03:38:19;4.20;;;0.80;;
23250;SDS011;11794;49.730;10.088;2023-07-28T03:40:44;4.10;;;0.93;;
23250;SDS011;11794;49.730;10.088;2023-07-28T03:43:10;4.47;;;0.90;;
23250;SDS011;11794;49.730;10.088;2023-07-28T03:45:35;6.57;;;0.90;;
23250;SDS011;11794;49.730;10.088;2023-07-28T03:48:01;4.73;;;0.90;;
23250;SDS011;11794;49.730;10.088;2023-07-28T03:50:27;4.00;;;0.70;;
23250;SDS011;11794;49.730;10.088;2023-07-28T03:52:52;4.63;;;0.83;;
23250;SDS011;11794;49.730;10.088;2023-07-28T03:55:18;4.60;;;0.77;;
23250;SDS011;11794;49.730;10.088;2023-07-28T03:57:44;4.10;;;0.90;;
23250;SDS011;11794;49.730;10.088;2023-07-28T04:00:09;4.20;;;0.80;;
23250;SDS011;11794;49.730;10.088;2023-07-28T04:02:35;4.55;;;0.75;;
23250;SDS011;11794;49.730;10.088;2023-07-28T04:05:01;4.87;;;1.00;;
23250;SDS011;11794;49.730;10.088;2023-07-28T04:07:26;5.13;;;1.17;;
23250;SDS011;11794;49.730;10.088;2023-07-28T04:09:52;5.13;;;0.95;;
23250;SDS011;11794;49.730;10.088;2023-07-28T04:12:17;7.47;;;1.50;;
23250;SDS011;11794;49.730;10.088;2023-07-28T04:14:43;4.40;;;1.13;;
23250;SDS011;11794;49.730;10.088;2023-07-28T04:17:08;4.85;;;1.35;;
23250;SDS011;11794;49.730;10.088;2023-07-28T04:19:34;5.00;;;1.17;;
23250;SDS011;11794;49.730;10.088;2023-07-28T04:22:00;4.70;;;1.10;;
23250;SDS011;11794;49.730;10.088;2023-07-28T04:24:26;4.53;;;1.33;;
23250;SDS011;11794;49.730;10.088;2023-07-28T04:26:52;5.60;;;1.45;;
23250;SDS011;11794;49.730;10.088;2023-07-28T04:29:17;4.55;;;1.20;;
23250;SDS011;11794;49.730;10.088;2023-07-28T04:31:43;5.07;;;1.30;;
23250;SDS011;11794;49.730;10.088;2023-07-28T04:34:09;6.55;;;1.30;;
23250;SDS011;11794;49.730;10.088;2023-07-28T04:36:34;3.80;;;0.90;;
23250;SDS011;11794;49.730;10.088;2023-07-28T04:39:00;4.80;;;1.20;;
23250;SDS011;11794;49.730;10.088;2023-07-28T04:41:25;4.32;;;1.00;;
23250;SDS011;11794;49.730;10.088;2023-07-28T04:43:51;4.90;;;1.07;;
23250;SDS011;11794;49.730;10.088;2023-07-28T04:46:16;4.10;;;0.98;;
23250;SDS011;11794;49.730;10.088;2023-07-28T04:48:42;4.00;;;1.00;;
23250;SDS011;11794;49.730;10.088;2023-07-28T04:51:07;4.57;;;0.90;;
23250;SDS011;11794;49.730;10.088;2023-07-28T04:53:33;4.50;;;1.05;;
23250;SDS011;11794;49.730;10.088;2023-07-28T04:55:58;4.83;;;1.10;;
23250;SDS011;11794;49.730;10.088;2023-07-28T04:58:24;4.80;;;1.20;;
23250;SDS011;11794;49.730;10.088;2023-07-28T05:00:49;5.28;;;1.10;;
23250;SDS011;11794;49.730;10.088;2023-07-28T05:03:15;6.30;;;1.20;;
23250;SDS011;11794;49.730;10.088;2023-07-28T05:05:43;4.53;;;1.40;;
23250;SDS011;11794;49.730;10.088;2023-07-28T05:08:09;4.72;;;1.38;;
23250;SDS011;11794;49.730;10.088;2023-07-28T05:10:35;4.30;;;1.10;;
23250;SDS011;11794;49.730;10.088;2023-07-28T05:13:01;5.53;;;1.40;;
23250;SDS011;11794;49.730;10.088;2023-07-28T05:15:29;4.97;;;1.23;;
23250;SDS011;11794;49.730;10.088;2023-07-28T05:17:55;5.03;;;1.60;;
23250;SDS011;11794;49.730;10.088;2023-07-28T05:20:20;5.40;;;1.60;;
23250;SDS011;11794;49.730;10.088;2023-07-28T05:22:46;12.20;;;5.40;;
23250;SDS011;11794;49.730;10.088;2023-07-28T05:25:11;4.53;;;1.30;;
23250;SDS011;11794;49.730;10.088;2023-07-28T05:27:37;7.53;;;1.90;;
23250;SDS011;11794;49.730;10.088;2023-07-28T05:30:03;5.30;;;1.58;;
23250;SDS011;11794;49.730;10.088;2023-07-28T05:32:29;5.00;;;1.38;;
23250;SDS011;11794;49.730;10.088;2023-07-28T05:34:54;5.10;;;1.70;;
23250;SDS011;11794;49.730;10.088;2023-07-28T05:37:20;4.93;;;1.40;;
23250;SDS011;11794;49.730;10.088;2023-07-28T05:39:45;7.13;;;1.55;;
23250;SDS011;11794;49.730;10.088;2023-07-28T05:42:11;5.33;;;1.33;;
23250;SDS011;11794;49.730;10.088;2023-07-28T05:44:36;6.37;;;1.50;;
23250;SDS011;11794;49.730;10.088;2023-07-28T05:47:02;5.78;;;1.90;;
23250;SDS011;11794;49.730;10.088;2023-07-28T05:49:27;5.20;;;1.50;;
23250;SDS011;11794;49.730;10.088;2023-07-28T05:51:53;5.57;;;1.70;;
23250;SDS011;11794;49.730;10.088;2023-07-28T05:54:18;6.65;;;1.60;;
23250;SDS011;11794;49.730;10.088;2023-07-28T05:56:44;5.37;;;1.90;;
23250;SDS011;11794;49.730;10.088;2023-07-28T05:59:09;4.43;;;1.30;;
23250;SDS011;11794;49.730;10.088;2023-07-28T06:01:35;7.47;;;1.75;;
23250;SDS011;11794;49.730;10.088;2023-07-28T06:04:00;5.30;;;1.70;;
23250;SDS011;11794;49.730;10.088;2023-07-28T06:06:26;5.80;;;1.63;;
23250;SDS011;11794;49.730;10.088;2023-07-28T06:08:52;6.25;;;1.77;;
23250;SDS011;11794;49.730;10.088;2023-07-28T06:11:18;5.10;;;1.67;;
23250;SDS011;11794;49.730;10.088;2023-07-28T06:13:44;5.38;;;1.70;;
23250;SDS011;11794;49.730;10.088;2023-07-28T06:16:11;5.57;;;1.90;;
23250;SDS011;11794;49.730;10.088;2023-07-28T06:18:37;7.32;;;1.90;;
23250;SDS011;11794;49.730;10.088;2023-07-28T06:21:02;4.72;;;1.52;;
23250;SDS011;11794;49.730;10.088;2023-07-28T06:23:28;5.70;;;1.70;;
23250;SDS011;11794;49.730;10.088;2023-07-28T06:25:53;8.20;;;1.70;;
23250;SDS011;11794;49.730;10.088;2023-07-28T06:28:20;4.75;;;1.52;;
23250;SDS011;11794;49.730;10.088;2023-07-28T06:30:45;5.85;;;1.90;;
23250;SDS011;11794;49.730;10.088;2023-07-28T06:33:11;4.67;;;1.43;;
23250;SDS011;11794;49.730;10.088;2023-07-28T06:35:37;5.82;;;1.70;;
23250;SDS011;11794;49.730;10.088;2023-07-28T06:38:02;4.60;;;1.60;;
23250;SDS011;11794;49.730;10.088;2023-07-28T06:40:28;4.80;;;1.30;;
23250;SDS011;11794;49.730;10.088;2023-07-28T06:42:54;5.15;;;1.27;;
23250;SDS011;11794;49.730;10.088;2023-07-28T06:45:20;5.30;;;1.70;;
23250;SDS011;11794;49.730;10.088;2023-07-28T06:47:46;5.15;;;1.33;;
23250;SDS011;11794;49.730;10.088;2023-07-28T06:50:11;4.95;;;1.60;;
23250;SDS011;11794;49.730;10.088;2023-07-28T06:52:37;4.25;;;1.02;;
23250;SDS011;11794;49.730;10.088;2023-07-28T06:55:03;4.77;;;1.23;;
23250;SDS011;11794;49.730;10.088;2023-07-28T06:57:29;5.03;;;1.10;;
23250;SDS011;11794;49.730;10.088;2023-07-28T06:59:56;3.97;;;1.00;;
23250;SDS011;11794;49.730;10.088;2023-07-28T07:02:21;4.30;;;1.10;;
23250;SDS011;11794;49.730;10.088;2023-07-28T07:04:47;4.63;;;1.10;;
23250;SDS011;11794;49.730;10.088;2023-07-28T07:07:13;3.83;;;0.90;;
23250;SDS011;11794;49.730;10.088;2023-07-28T07:09:38;4.47;;;1.20;;
23250;SDS011;11794;49.730;10.088;2023-07-28T07:12:04;3.90;;;1.00;;
23250;SDS011;11794;49.730;10.088;2023-07-28T07:14:30;5.47;;;1.10;;
23250;SDS011;11794;49.730;10.088;2023-07-28T07:16:56;5.07;;;1.00;;
23250;SDS011;11794;49.730;10.088;2023-07-28T07:19:21;5.72;;;1.20;;
23250;SDS011;11794;49.730;10.088;2023-07-28T07:21:47;6.27;;;1.27;;
23250;SDS011;11794;49.730;10.088;2023-07-28T07:24:14;3.80;;;0.70;;
23250;SDS011;11794;49.730;10.088;2023-07-28T07:26:40;3.42;;;0.80;;
23250;SDS011;11794;49.730;10.088;2023-07-28T07:29:06;5.07;;;1.10;;
23250;SDS011;11794;49.730;10.088;2023-07-28T07:31:33;3.83;;;0.80;;
23250;SDS011;11794;49.730;10.088;2023-07-28T07:33:58;3.90;;;1.10;;
23250;SDS011;11794;49.730;10.088;2023-07-28T07:36:25;3.88;;;1.00;;
23250;SDS011;11794;49.730;10.088;2023-07-28T07:38:50;3.17;;;0.60;;
23250;SDS011;11794;49.730;10.088;2023-07-28T07:41:16;3.10;;;0.70;;
23250;SDS011;11794;49.730;10.088;2023-07-28T07:43:44;3.55;;;0.90;;
23250;SDS011;11794;49.730;10.088;2023-07-28T07:46:13;4.38;;;0.98;;
23250;SDS011;11794;49.730;10.088;2023-07-28T07:48:40;4.18;;;0.90;;
23250;SDS011;11794;49.730;10.088;2023-07-28T07:51:06;3.90;;;0.90;;
23250;SDS011;11794;49.730;10.088;2023-07-28T07:53:32;5.25;;;0.88;;
23250;SDS011;11794;49.730;10.088;2023-07-28T07:55:58;4.10;;;1.10;;
23250;SDS011;11794;49.730;10.088;2023-07-28T07:58:23;5.28;;;1.10;;
23250;SDS011;11794;49.730;10.088;2023-07-28T08:00:49;4.40;;;0.97;;
23250;SDS011;11794;49.730;10.088;2023-07-28T08:03:14;4.80;;;1.40;;
23250;SDS011;11794;49.730;10.088;2023-07-28T08:05:40;4.27;;;1.13;;
23250;SDS011;11794;49.730;10.088;2023-07-28T08:08:05;4.17;;;0.90;;
23250;SDS011;11794;49.730;10.088;2023-07-28T08:10:32;4.18;;;0.75;;
23250;SDS011;11794;49.730;10.088;2023-07-28T08:12:58;4.38;;;0.93;;
23250;SDS011;11794;49.730;10.088;2023-07-28T08:15:24;3.28;;;0.82;;
23250;SDS011;11794;49.730;10.088;2023-07-28T08:17:50;3.53;;;0.80;;
23250;SDS011;11794;49.730;10.088;2023-07-28T08:20:16;3.83;;;0.70;;
23250;SDS011;11794;49.730;10.088;2023-07-28T08:22:41;2.80;;;0.60;;
23250;SDS011;11794;49.730;10.088;2023-07-28T08:25:07;3.03;;;0.60;;
23250;SDS011;11794;49.730;10.088;2023-07-28T08:27:33;6.47;;;0.60;;
23250;SDS011;11794;49.730;10.088;2023-07-28T08:29:58;3.43;;;0.90;;
23250;SDS011;11794;49.730;10.088;2023-07-28T08:32:24;3.27;;;0.70;;
23250;SDS011;11794;49.730;10.088;2023-07-28T08:34:50;3.93;;;0.57;;
23250;SDS011;11794;49.730;10.088;2023-07-28T08:37:15;2.55;;;0.55;;
23250;SDS011;11794;49.730;10.088;2023-07-28T08:39:41;2.97;;;0.50;;
23250;SDS011;11794;49.730;10.088;2023-07-28T08:42:06;2.87;;;0.50;;
23250;SDS011;11794;49.730;10.088;2023-07-28T08:44:33;3.83;;;0.70;;
23250;SDS011;11794;49.730;10.088;2023-07-28T08:46:59;3.45;;;0.60;;
23250;SDS011;11794;49.730;10.088;2023-07-28T08:49:26;5.60;;;0.70;;
23250;SDS011;11794;49.730;10.088;2023-07-28T08:51:52;3.90;;;0.60;;
23250;SDS011;11794;49.730;10.088;2023-07-28T08:54:22;2.22;;;0.45;;
23250;SDS011;11794;49.730;10.088;2023-07-28T08:56:48;2.93;;;0.67;;
23250;SDS011;11794;49.730;10.088;2023-07-28T08:59:20;3.13;;;0.60;;
23250;SDS011;11794;49.730;10.088;2023-07-28T09:01:49;3.00;;;0.60;;
23250;SDS011;11794;49.730;10.088;2023-07-28T09:04:15;4.45;;;1.17;;
23250;SDS011;11794;49.730;10.088;2023-07-28T09:06:44;2.38;;;0.55;;
23250;SDS011;11794;49.730;10.088;2023-07-28T09:09:10;2.50;;;0.60;;
23250;SDS011;11794;49.730;10.088;2023-07-28T09:11:45;2.70;;;0.50;;
23250;SDS011;11794;49.730;10.088;2023-07-28T09:14:16;3.00;;;0.70;;
23250;SDS011;11794;49.730;10.088;2023-07-28T09:16:43;3.20;;;0.80;;
23250;SDS011;11794;49.730;10.088;2023-07-28T09:19:10;3.00;;;0.70;;
23250;SDS011;11794;49.730;10.088;2023-07-28T09:21:36;3.00;;;0.80;;
23250;SDS011;11794;49.730;10.088;2023-07-28T09:24:04;3.40;;;0.73;;
23250;SDS011;11794;49.730;10.088;2023-07-28T09:26:40;4.00;;;0.90;;
23250;SDS011;11794;49.730;10.088;2023-07-28T09:29:24;3.40;;;0.90;;
23250;SDS011;11794;49.730;10.088;2023-07-28T09:31:52;3.85;;;1.00;;
23250;SDS011;11794;49.730;10.088;2023-07-28T09:34:25;3.97;;;0.85;;
23250;SDS011;11794;49.730;10.088;2023-07-28T09:36:59;2.53;;;0.80;;
23250;SDS011;11794;49.730;10.088;2023-07-28T09:39:25;3.30;;;0.80;;
23250;SDS011;11794;49.730;10.088;2023-07-28T09:41:51;3.80;;;0.93;;
23250;SDS011;11794;49.730;10.088;2023-07-28T09:44:18;5.75;;;0.95;;
23250;SDS011;11794;49.730;10.088;2023-07-28T09:46:49;4.00;;;0.97;;
23250;SDS011;11794;49.730;10.088;2023-07-28T09:49:19;4.00;;;1.35;;
23250;SDS011;11794;49.730;10.088;2023-07-28T09:51:48;3.83;;;0.80;;
23250;SDS011;11794;49.730;10.088;2023-07-28T09:54:24;4.90;;;1.05;;
23250;SDS011;11794;49.730;10.088;2023-07-28T09:56:55;3.95;;;1.20;;
23250;SDS011;11794;49.730;10.088;2023-07-28T09:59:22;3.63;;;1.10;;
23250;SDS011;11794;49.730;10.088;2023-07-28T10:01:53;4.85;;;0.98;;
23250;SDS011;11794;49.730;10.088;2023-07-28T10:04:20;3.45;;;1.00;;
23250;SDS011;11794;49.730;10.088;2023-07-28T10:06:46;4.43;;;0.90;;
23250;SDS011;11794;49.730;10.088;2023-07-28T10:09:12;3.10;;;0.80;;
23250;SDS011;11794;49.730;10.088;2023-07-28T10:11:41;6.32;;;1.13;;
23250;SDS011;11794;49.730;10.088;2023-07-28T10:14:07;6.45;;;1.20;;
23250;SDS011;11794;49.730;10.088;2023-07-28T10:16:38;3.08;;;0.95;;
23250;SDS011;11794;49.730;10.088;2023-07-28T10:19:04;4.53;;;1.02;;
23250;SDS011;11794;49.730;10.088;2023-07-28T10:21:30;4.15;;;1.25;;
23250;SDS011;11794;49.730;10.088;2023-07-28T10:23:57;3.55;;;1.10;;
23250;SDS011;11794;49.730;10.088;2023-07-28T10:26:36;2.92;;;0.80;;
23250;SDS011;11794;49.730;10.088;2023-07-28T10:29:15;3.90;;;0.90;;
23250;SDS011;11794;49.730;10.088;2023-07-28T10:31:50;3.97;;;0.90;;
23250;SDS011;11794;49.730;10.088;2023-07-28T10:34:17;3.60;;;0.90;;
23250;SDS011;11794;49.730;10.088;2023-07-28T10:36:44;3.33;;;0.82;;
23250;SDS011;11794;49.730;10.088;2023-07-28T10:39:14;3.28;;;0.77;;
23250;SDS011;11794;49.730;10.088;2023-07-28T10:44:45;3.00;;;0.80;;
23250;SDS011;11794;49.730;10.088;2023-07-28T10:47:11;3.60;;;1.33;;
23250;SDS011;11794;49.730;10.088;2023-07-28T10:49:38;3.78;;;0.90;;
23250;SDS011;11794;49.730;10.088;2023-07-28T10:52:03;3.25;;;0.98;;
23250;SDS011;11794;49.730;10.088;2023-07-28T10:54:30;2.83;;;0.67;;
23250;SDS011;11794;49.730;10.088;2023-07-28T10:56:56;3.10;;;0.80;;
23250;SDS011;11794;49.730;10.088;2023-07-28T10:59:26;3.47;;;0.90;;
23250;SDS011;11794;49.730;10.088;2023-07-28T11:01:51;2.93;;;0.83;;
23250;SDS011;11794;49.730;10.088;2023-07-28T11:04:19;3.05;;;0.80;;
23250;SDS011;11794;49.730;10.088;2023-07-28T11:06:46;3.38;;;1.02;;
23250;SDS011;11794;49.730;10.088;2023-07-28T11:09:14;3.83;;;1.00;;
23250;SDS011;11794;49.730;10.088;2023-07-28T11:11:42;3.97;;;0.80;;
23250;SDS011;11794;49.730;10.088;2023-07-28T11:14:08;3.53;;;1.00;;
23250;SDS011;11794;49.730;10.088;2023-07-28T11:16:40;3.28;;;0.95;;
23250;SDS011;11794;49.730;10.088;2023-07-28T11:19:10;3.30;;;1.17;;
23250;SDS011;11794;49.730;10.088;2023-07-28T11:21:40;3.72;;;1.00;;
23250;SDS011;11794;49.730;10.088;2023-07-28T11:24:06;3.45;;;0.73;;
23250;SDS011;11794;49.730;10.088;2023-07-28T11:26:36;2.92;;;0.68;;
23250;SDS011;11794;49.730;10.088;2023-07-28T11:29:03;3.10;;;0.85;;
23250;SDS011;11794;49.730;10.088;2023-07-28T11:31:29;3.45;;;0.85;;
23250;SDS011;11794;49.730;10.088;2023-07-28T11:33:55;3.97;;;0.80;;
23250;SDS011;11794;49.730;10.088;2023-07-28T11:36:24;2.90;;;0.70;;
23250;SDS011;11794;49.730;10.088;2023-07-28T11:38:57;3.40;;;0.90;;
23250;SDS011;11794;49.730;10.088;2023-07-28T11:41:24;3.55;;;0.80;;
23250;SDS011;11794;49.730;10.088;2023-07-28T11:43:51;3.75;;;0.88;;
23250;SDS011;11794;49.730;10.088;2023-07-28T11:49:17;3.28;;;0.70;;
23250;SDS011;11794;49.730;10.088;2023-07-28T11:51:48;3.53;;;0.70;;
23250;SDS011;11794;49.730;10.088;2023-07-28T11:54:19;3.05;;;0.93;;
23250;SDS011;11794;49.730;10.088;2023-07-28T11:56:47;2.67;;;0.80;;
23250;SDS011;11794;49.730;10.088;2023-07-28T11:59:15;3.75;;;1.08;;
23250;SDS011;11794;49.730;10.088;2023-07-28T12:04:39;3.70;;;1.30;;
23250;SDS011;11794;49.730;10.088;2023-07-28T12:07:16;3.22;;;0.80;;
23250;SDS011;11794;49.730;10.088;2023-07-28T12:12:10;3.50;;;0.80;;
23250;SDS011;11794;49.730;10.088;2023-07-28T12:14:36;3.70;;;1.00;;
23250;SDS011;11794;49.730;10.088;2023-07-28T12:17:03;4.67;;;0.93;;
23250;SDS011;11794;49.730;10.088;2023-07-28T12:19:40;2.97;;;1.00;;
23250;SDS011;11794;49.730;10.088;2023-07-28T12:22:06;3.63;;;1.00;;
23250;SDS011;11794;49.730;10.088;2023-07-28T12:24:32;3.30;;;0.98;;
23250;SDS011;11794;49.730;10.088;2023-07-28T12:26:58;4.07;;;0.93;;
23250;SDS011;11794;49.730;10.088;2023-07-28T12:29:23;3.20;;;0.83;;
23250;SDS011;11794;49.730;10.088;2023-07-28T12:31:49;3.43;;;1.10;;
23250;SDS011;11794;49.730;10.088;2023-07-28T12:34:14;4.55;;;1.23;;
23250;SDS011;11794;49.730;10.088;2023-07-28T12:36:40;2.73;;;0.80;;
23250;SDS011;11794;49.730;10.088;2023-07-28T12:39:06;2.77;;;0.77;;
23250;SDS011;11794;49.730;10.088;2023-07-28T12:41:31;2.67;;;0.70;;
23250;SDS011;11794;49.730;10.088;2023-07-28T12:43:57;2.93;;;0.80;;
23250;SDS011;11794;49.730;10.088;2023-07-28T12:46:22;3.22;;;0.80;;
23250;SDS011;11794;49.730;10.088;2023-07-28T12:48:48;2.43;;;0.63;;
23250;SDS011;11794;49.730;10.088;2023-07-28T12:51:13;2.53;;;0.70;;
23250;SDS011;11794;49.730;10.088;2023-07-28T12:53:39;2.33;;;0.60;;
23250;SDS011;11794;49.730;10.088;2023-07-28T12:56:04;2.57;;;0.50;;
23250;SDS011;11794;49.730;10.088;2023-07-28T12:58:30;2.28;;;0.60;;
23250;SDS011;11794;49.730;10.088;2023-07-28T13:00:56;3.00;;;0.60;;
23250;SDS011;11794;49.730;10.088;2023-07-28T13:03:24;3.17;;;0.80;;
23250;SDS011;11794;49.730;10.088;2023-07-28T13:05:49;3.28;;;0.90;;
23250;SDS011;11794;49.730;10.088;2023-07-28T13:08:15;3.87;;;0.80;;
23250;SDS011;11794;49.730;10.088;2023-07-28T13:10:41;2.67;;;0.73;;
23250;SDS011;11794;49.730;10.088;2023-07-28T13:13:06;3.97;;;0.80;;
23250;SDS011;11794;49.730;10.088;2023-07-28T13:15:32;3.72;;;1.08;;
23250;SDS011;11794;49.730;10.088;2023-07-28T13:17:57;2.73;;;0.80;;
23250;SDS011;11794;49.730;10.088;2023-07-28T13:20:23;3.20;;;0.97;;
23250;SDS011;11794;49.730;10.088;2023-07-28T13:22:48;2.53;;;0.70;;
23250;SDS011;11794;49.730;10.088;2023-07-28T13:25:14;2.92;;;0.80;;
23250;SDS011;11794;49.730;10.088;2023-07-28T13:27:39;2.80;;;0.80;;
23250;SDS011;11794;49.730;10.088;2023-07-28T13:30:05;3.17;;;0.77;;
23250;SDS011;11794;49.730;10.088;2023-07-28T13:32:31;2.90;;;0.73;;
23250;SDS011;11794;49.730;10.088;2023-07-28T13:34:56;3.58;;;0.75;;
23250;SDS011;11794;49.730;10.088;2023-07-28T13:37:22;3.00;;;0.73;;
23250;SDS011;11794;49.730;10.088;2023-07-28T13:39:47;3.42;;;0.70;;
23250;SDS011;11794;49.730;10.088;2023-07-28T13:42:13;4.07;;;0.90;;
23250;SDS011;11794;49.730;10.088;2023-07-28T13:44:40;4.45;;;0.80;;
23250;SDS011;11794;49.730;10.088;2023-07-28T13:47:06;3.90;;;0.70;;
23250;SDS011;11794;49.730;10.088;2023-07-28T13:49:32;2.83;;;0.67;;
23250;SDS011;11794;49.730;10.088;2023-07-28T13:52:04;2.97;;;0.65;;
23250;SDS011;11794;49.730;10.088;2023-07-28T13:54:30;3.17;;;0.80;;
23250;SDS011;11794;49.730;10.088;2023-07-28T13:56:55;2.90;;;0.60;;
23250;SDS011;11794;49.730;10.088;2023-07-28T13:59:21;2.40;;;0.50;;
23250;SDS011;11794;49.730;10.088;2023-07-28T14:01:48;3.33;;;0.77;;
23250;SDS011;11794;49.730;10.088;2023-07-28T14:04:15;2.95;;;0.70;;
23250;SDS011;11794;49.730;10.088;2023-07-28T14:06:40;3.40;;;0.82;;
23250;SDS011;11794;49.730;10.088;2023-07-28T14:09:06;4.40;;;0.97;;
23250;SDS011;11794;49.730;10.088;2023-07-28T14:11:31;8.03;;;0.93;;
23250;SDS011;11794;49.730;10.088;2023-07-28T14:13:57;3.33;;;0.98;;
23250;SDS011;11794;49.730;10.088;2023-07-28T14:16:22;3.97;;;1.20;;
23250;SDS011;11794;49.730;10.088;2023-07-28T14:18:48;3.80;;;0.80;;
23250;SDS011;11794;49.730;10.088;2023-07-28T14:21:15;4.47;;;1.00;;
23250;SDS011;11794;49.730;10.088;2023-07-28T14:23:41;3.22;;;0.82;;
23250;SDS011;11794;49.730;10.088;2023-07-28T14:26:06;3.40;;;0.70;;
23250;SDS011;11794;49.730;10.088;2023-07-28T14:28:32;3.10;;;0.80;;
23250;SDS011;11794;49.730;10.088;2023-07-28T14:30:57;3.93;;;1.00;;
23250;SDS011;11794;49.730;10.088;2023-07-28T14:33:23;3.87;;;0.90;;
23250;SDS011;11794;49.730;10.088;2023-07-28T14:35:49;3.67;;;0.90;;
23250;SDS011;11794;49.730;10.088;2023-07-28T14:38:15;3.67;;;0.83;;
23250;SDS011;11794;49.730;10.088;2023-07-28T14:40:41;3.70;;;1.00;;
23250;SDS011;11794;49.730;10.088;2023-07-28T14:43:09;3.50;;;0.80;;
23250;SDS011;11794;49.730;10.088;2023-07-28T14:45:34;3.45;;;0.90;;